sensor_id;sensor_type;location;lat;lon;timestamp;pressure;altitude;pressure_sealevel;temperature;humidity
12664;BME280;6396;58.490;15.528;2022-10-16T00:02:05;99660.81;;;12.73;100.00
12664;BME280;6396;58.490;15.528;2022-10-16T00:04:32;99749.56;;;13.34;100.00
12664;BME280;6396;58.490;15.528;2022-10-16T00:06:58;99606.72;;;12.43;100.00
12664;BME280;6396;58.490;15.528;2022-10-16T00:09:25;99729.69;;;13.08;100.00
12664;BME280;6396;58.490;15.528;2022-10-16T00:11:52;99704.03;;;13.09;100.00
12664;BME280;6396;58.490;15.528;2022-10-16T00:14:20;99346.91;;;10.96;100.00
12664;BME280;6396;58.490;15.528;2022-10-16T00:16:47;99655.28;;;12.60;100.00
12664;BME280;6396;58.490;15.528;2022-10-16T00:19:14;99728.66;;;13.11;100.00
12664;BME280;6396;58.490;15.528;2022-10-16T00:21:42;99755.66;;;13.36;100.00
12664;BME280;6396;58.490;15.528;2022-10-16T00:24:10;99745.97;;;13.35;100.00
12664;BME280;6396;58.490;15.528;2022-10-16T00:26:37;99561.56;;;12.28;100.00
12664;BME280;6396;58.490;15.528;2022-10-16T00:29:05;99735.44;;;13.33;100.00
12664;BME280;6396;58.490;15.528;2022-10-16T00:31:34;99743.41;;;13.33;100.00
12664;BME280;6396;58.490;15.528;2022-10-16T00:34:01;99715.00;;;13.01;100.00
12664;BME280;6396;58.490;15.528;2022-10-16T00:36:27;99771.84;;;13.30;100.00
12664;BME280;6396;58.490;15.528;2022-10-16T00:38:56;99571.44;;;12.25;100.00
12664;BME280;6396;58.490;15.528;2022-10-16T00:41:26;99746.22;;;13.30;100.00
12664;BME280;6396;58.490;15.528;2022-10-16T00:43:55;99708.53;;;13.07;100.00
12664;BME280;6396;58.490;15.528;2022-10-16T00:46:23;99749.72;;;13.31;100.00
12664;BME280;6396;58.490;15.528;2022-10-16T00:48:56;99752.38;;;13.31;100.00
12664;BME280;6396;58.490;15.528;2022-10-16T00:51:27;99755.81;;;13.33;100.00
12664;BME280;6396;58.490;15.528;2022-10-16T00:53:55;99760.34;;;13.31;100.00
12664;BME280;6396;58.490;15.528;2022-10-16T00:56:22;99752.75;;;13.06;100.00
12664;BME280;6396;58.490;15.528;2022-10-16T00:58:49;99787.69;;;13.31;100.00
12664;BME280;6396;58.490;15.528;2022-10-16T01:01:15;99714.84;;;12.87;100.00
12664;BME280;6396;58.490;15.528;2022-10-16T01:03:42;99759.75;;;13.07;100.00
12664;BME280;6396;58.490;15.528;2022-10-16T01:06:27;99762.50;;;13.23;100.00
12664;BME280;6396;58.490;15.528;2022-10-16T01:09:07;99666.47;;;12.48;100.00
12664;BME280;6396;58.490;15.528;2022-10-16T01:11:41;99772.19;;;13.24;100.00
12664;BME280;6396;58.490;15.528;2022-10-16T01:14:15;99762.59;;;13.21;100.00
12664;BME280;6396;58.490;15.528;2022-10-16T01:16:48;99720.22;;;12.86;100.00
12664;BME280;6396;58.490;15.528;2022-10-16T01:19:24;99663.97;;;12.45;100.00
12664;BME280;6396;58.490;15.528;2022-10-16T01:21:55;99704.50;;;12.64;100.00
12664;BME280;6396;58.490;15.528;2022-10-16T01:24:31;99610.50;;;12.20;100.00
12664;BME280;6396;58.490;15.528;2022-10-16T01:27:08;99788.75;;;13.10;100.00
12664;BME280;6396;58.490;15.528;2022-10-16T01:29:42;99760.09;;;12.83;100.00
12664;BME280;6396;58.490;15.528;2022-10-16T01:32:15;99770.19;;;13.10;100.00
12664;BME280;6396;58.490;15.528;2022-10-16T01:34:48;99777.31;;;13.10;100.00
12664;BME280;6396;58.490;15.528;2022-10-16T01:37:25;99710.28;;;12.72;100.00
12664;BME280;6396;58.490;15.528;2022-10-16T01:39:59;99764.91;;;13.10;100.00
12664;BME280;6396;58.490;15.528;2022-10-16T01:42:34;99776.22;;;13.14;100.00
12664;BME280;6396;58.490;15.528;2022-10-16T01:45:02;99733.13;;;12.92;100.00
12664;BME280;6396;58.490;15.528;2022-10-16T01:47:32;99771.84;;;13.13;100.00
12664;BME280;6396;58.490;15.528;2022-10-16T01:50:01;99735.09;;;12.88;100.00
12664;BME280;6396;58.490;15.528;2022-10-16T01:52:32;99813.41;;;13.12;100.00
12664;BME280;6396;58.490;15.528;2022-10-16T01:55:01;99763.28;;;13.08;100.00
12664;BME280;6396;58.490;15.528;2022-10-16T01:57:32;99723.78;;;12.85;100.00
12664;BME280;6396;58.490;15.528;2022-10-16T02:00:03;99729.59;;;12.74;100.00
12664;BME280;6396;58.490;15.528;2022-10-16T02:02:30;99712.63;;;12.78;100.00
12664;BME280;6396;58.490;15.528;2022-10-16T02:05:02;99599.66;;;12.07;100.00
12664;BME280;6396;58.490;15.528;2022-10-16T02:07:30;99748.75;;;12.98;100.00
12664;BME280;6396;58.490;15.528;2022-10-16T02:09:57;99746.94;;;12.98;100.00
12664;BME280;6396;58.490;15.528;2022-10-16T02:12:27;99748.38;;;13.05;100.00
12664;BME280;6396;58.490;15.528;2022-10-16T02:14:56;99755.19;;;12.92;100.00
12664;BME280;6396;58.490;15.528;2022-10-16T02:17:23;99701.94;;;12.63;100.00
12664;BME280;6396;58.490;15.528;2022-10-16T02:19:51;99723.06;;;12.81;100.00
12664;BME280;6396;58.490;15.528;2022-10-16T02:22:22;99747.47;;;13.06;100.00
12664;BME280;6396;58.490;15.528;2022-10-16T02:24:54;99748.38;;;13.05;100.00
12664;BME280;6396;58.490;15.528;2022-10-16T02:27:26;99699.16;;;12.83;100.00
12664;BME280;6396;58.490;15.528;2022-10-16T02:29:59;99704.66;;;12.61;100.00
12664;BME280;6396;58.490;15.528;2022-10-16T02:32:34;99748.28;;;13.07;100.00
12664;BME280;6396;58.490;15.528;2022-10-16T02:35:03;99730.16;;;12.81;100.00
12664;BME280;6396;58.490;15.528;2022-10-16T02:37:31;99625.69;;;12.16;100.00
12664;BME280;6396;58.490;15.528;2022-10-16T02:39:58;99682.09;;;12.71;100.00
12664;BME280;6396;58.490;15.528;2022-10-16T02:42:28;99736.00;;;13.06;100.00
12664;BME280;6396;58.490;15.528;2022-10-16T02:44:57;99737.28;;;12.97;100.00
12664;BME280;6396;58.490;15.528;2022-10-16T02:47:24;99731.13;;;12.97;100.00
12664;BME280;6396;58.490;15.528;2022-10-16T02:49:51;99775.25;;;12.98;100.00
12664;BME280;6396;58.490;15.528;2022-10-16T02:52:18;99447.38;;;11.31;100.00
12664;BME280;6396;58.490;15.528;2022-10-16T02:54:45;99739.72;;;13.02;100.00
12664;BME280;6396;58.490;15.528;2022-10-16T02:57:11;99421.28;;;11.06;100.00
12664;BME280;6396;58.490;15.528;2022-10-16T02:59:38;99752.22;;;12.98;100.00
12664;BME280;6396;58.490;15.528;2022-10-16T03:02:06;99615.19;;;12.15;100.00
12664;BME280;6396;58.490;15.528;2022-10-16T03:04:33;99745.16;;;12.99;100.00
12664;BME280;6396;58.490;15.528;2022-10-16T03:07:00;99688.97;;;12.75;100.00
12664;BME280;6396;58.490;15.528;2022-10-16T03:09:27;99487.41;;;11.59;100.00
12664;BME280;6396;58.490;15.528;2022-10-16T03:11:54;99628.97;;;12.38;100.00
12664;BME280;6396;58.490;15.528;2022-10-16T03:14:21;99767.09;;;13.02;100.00
12664;BME280;6396;58.490;15.528;2022-10-16T03:16:47;99737.13;;;13.00;100.00
12664;BME280;6396;58.490;15.528;2022-10-16T03:19:17;99740.09;;;12.94;100.00
12664;BME280;6396;58.490;15.528;2022-10-16T03:21:44;99739.22;;;12.94;100.00
12664;BME280;6396;58.490;15.528;2022-10-16T03:24:11;99559.22;;;11.87;100.00
12664;BME280;6396;58.490;15.528;2022-10-16T03:26:38;99725.63;;;12.66;100.00
12664;BME280;6396;58.490;15.528;2022-10-16T03:29:05;99768.56;;;12.89;100.00
12664;BME280;6396;58.490;15.528;2022-10-16T03:31:32;99593.38;;;11.91;100.00
12664;BME280;6396;58.490;15.528;2022-10-16T03:33:59;99743.28;;;12.65;100.00
12664;BME280;6396;58.490;15.528;2022-10-16T03:36:27;99434.41;;;11.07;100.00
12664;BME280;6396;58.490;15.528;2022-10-16T03:38:54;99754.66;;;12.86;100.00
12664;BME280;6396;58.490;15.528;2022-10-16T03:41:20;99744.94;;;12.68;100.00
12664;BME280;6396;58.490;15.528;2022-10-16T03:43:47;99740.53;;;12.68;100.00
12664;BME280;6396;58.490;15.528;2022-10-16T03:46:14;99732.69;;;12.65;100.00
12664;BME280;6396;58.490;15.528;2022-10-16T03:48:41;99775.78;;;12.87;100.00
12664;BME280;6396;58.490;15.528;2022-10-16T03:51:07;99789.78;;;12.89;100.00
12664;BME280;6396;58.490;15.528;2022-10-16T03:53:35;99755.19;;;12.75;100.00
12664;BME280;6396;58.490;15.528;2022-10-16T03:56:02;99656.66;;;12.14;100.00
12664;BME280;6396;58.490;15.528;2022-10-16T03:58:29;99701.53;;;12.53;100.00
12664;BME280;6396;58.490;15.528;2022-10-16T04:00:56;99707.53;;;12.57;100.00
12664;BME280;6396;58.490;15.528;2022-10-16T04:03:23;99719.44;;;12.48;100.00
12664;BME280;6396;58.490;15.528;2022-10-16T04:05:49;99723.25;;;12.60;100.00
12664;BME280;6396;58.490;15.528;2022-10-16T04:08:16;99630.66;;;11.87;100.00
12664;BME280;6396;58.490;15.528;2022-10-16T04:10:45;99738.50;;;12.55;100.00
12664;BME280;6396;58.490;15.528;2022-10-16T04:13:12;99505.44;;;11.13;100.00
12664;BME280;6396;58.490;15.528;2022-10-16T04:15:39;99541.59;;;11.32;100.00
12664;BME280;6396;58.490;15.528;2022-10-16T04:18:06;99807.81;;;12.64;100.00
12664;BME280;6396;58.490;15.528;2022-10-16T04:20:33;99354.41;;;10.31;100.00
12664;BME280;6396;58.490;15.528;2022-10-16T04:23:00;99830.13;;;12.77;100.00
12664;BME280;6396;58.490;15.528;2022-10-16T04:25:27;99579.53;;;11.49;100.00
12664;BME280;6396;58.490;15.528;2022-10-16T04:27:56;99501.28;;;10.89;100.00
12664;BME280;6396;58.490;15.528;2022-10-16T04:30:23;99793.97;;;12.76;100.00
12664;BME280;6396;58.490;15.528;2022-10-16T04:32:50;99340.66;;;9.64;100.00
12664;BME280;6396;58.490;15.528;2022-10-16T04:35:18;99551.00;;;11.37;100.00
12664;BME280;6396;58.490;15.528;2022-10-16T04:37:44;99805.63;;;12.72;100.00
12664;BME280;6396;58.490;15.528;2022-10-16T04:40:11;99544.75;;;11.21;100.00
12664;BME280;6396;58.490;15.528;2022-10-16T04:42:38;99768.28;;;12.60;100.00
12664;BME280;6396;58.490;15.528;2022-10-16T04:45:08;99738.53;;;12.36;100.00
12664;BME280;6396;58.490;15.528;2022-10-16T04:47:35;99787.19;;;12.52;100.00
12664;BME280;6396;58.490;15.528;2022-10-16T04:50:02;99782.63;;;12.56;100.00
12664;BME280;6396;58.490;15.528;2022-10-16T04:52:29;99809.28;;;12.51;100.00
12664;BME280;6396;58.490;15.528;2022-10-16T04:54:56;99797.63;;;12.55;100.00
12664;BME280;6396;58.490;15.528;2022-10-16T04:57:28;99803.09;;;12.52;100.00
12664;BME280;6396;58.490;15.528;2022-10-16T04:59:55;99788.00;;;12.54;100.00
12664;BME280;6396;58.490;15.528;2022-10-16T05:02:23;99786.41;;;12.50;100.00
12664;BME280;6396;58.490;15.528;2022-10-16T05:04:50;99778.41;;;12.33;100.00
12664;BME280;6396;58.490;15.528;2022-10-16T05:07:17;99846.59;;;12.47;100.00
12664;BME280;6396;58.490;15.528;2022-10-16T05:09:43;99850.63;;;12.35;100.00
12664;BME280;6396;58.490;15.528;2022-10-16T05:12:10;99796.56;;;12.41;100.00
12664;BME280;6396;58.490;15.528;2022-10-16T05:14:37;99747.84;;;12.07;100.00
12664;BME280;6396;58.490;15.528;2022-10-16T05:17:04;99800.50;;;12.32;100.00
12664;BME280;6396;58.490;15.528;2022-10-16T05:19:32;99664.97;;;11.50;100.00
12664;BME280;6396;58.490;15.528;2022-10-16T05:21:59;99799.44;;;12.36;100.00
12664;BME280;6396;58.490;15.528;2022-10-16T05:24:25;99787.41;;;12.10;100.00
12664;BME280;6396;58.490;15.528;2022-10-16T05:26:52;99767.88;;;12.13;100.00
12664;BME280;6396;58.490;15.528;2022-10-16T05:29:20;99750.69;;;12.03;100.00
12664;BME280;6396;58.490;15.528;2022-10-16T05:31:50;99825.97;;;12.34;100.00
12664;BME280;6396;58.490;15.528;2022-10-16T05:34:16;99845.34;;;12.35;100.00
12664;BME280;6396;58.490;15.528;2022-10-16T05:36:44;99659.97;;;11.44;100.00
12664;BME280;6396;58.490;15.528;2022-10-16T05:39:11;99852.22;;;12.39;100.00
12664;BME280;6396;58.490;15.528;2022-10-16T05:41:38;99849.94;;;12.31;100.00
12664;BME280;6396;58.490;15.528;2022-10-16T05:44:05;99762.28;;;12.00;100.00
12664;BME280;6396;58.490;15.528;2022-10-16T05:46:32;99518.09;;;10.48;100.00
12664;BME280;6396;58.490;15.528;2022-10-16T05:48:59;99784.03;;;12.07;100.00
12664;BME280;6396;58.490;15.528;2022-10-16T05:51:26;99806.91;;;12.08;100.00
12664;BME280;6396;58.490;15.528;2022-10-16T05:53:54;99848.38;;;12.27;100.00
12664;BME280;6396;58.490;15.528;2022-10-16T05:56:21;99730.66;;;11.79;100.00
12664;BME280;6396;58.490;15.528;2022-10-16T05:58:48;99819.09;;;12.30;100.00
12664;BME280;6396;58.490;15.528;2022-10-16T06:01:16;99802.03;;;11.99;100.00
12664;BME280;6396;58.490;15.528;2022-10-16T06:03:43;99831.22;;;12.16;100.00
12664;BME280;6396;58.490;15.528;2022-10-16T06:06:11;99752.19;;;11.90;100.00
12664;BME280;6396;58.490;15.528;2022-10-16T06:08:39;99647.91;;;11.18;100.00
12664;BME280;6396;58.490;15.528;2022-10-16T06:11:08;99764.56;;;11.89;100.00
12664;BME280;6396;58.490;15.528;2022-10-16T06:13:35;99847.41;;;12.28;100.00
12664;BME280;6396;58.490;15.528;2022-10-16T06:16:03;99836.75;;;12.30;100.00
12664;BME280;6396;58.490;15.528;2022-10-16T06:18:30;99840.28;;;12.30;100.00
12664;BME280;6396;58.490;15.528;2022-10-16T06:20:57;99846.69;;;12.25;100.00
12664;BME280;6396;58.490;15.528;2022-10-16T06:23:24;99849.16;;;12.29;100.00
12664;BME280;6396;58.490;15.528;2022-10-16T06:25:51;99813.66;;;11.95;100.00
12664;BME280;6396;58.490;15.528;2022-10-16T06:28:19;99863.88;;;12.35;100.00
12664;BME280;6396;58.490;15.528;2022-10-16T06:30:46;99850.63;;;12.35;100.00
12664;BME280;6396;58.490;15.528;2022-10-16T06:33:13;99631.53;;;10.90;100.00
12664;BME280;6396;58.490;15.528;2022-10-16T06:35:40;99818.44;;;12.07;100.00
12664;BME280;6396;58.490;15.528;2022-10-16T06:38:06;99726.16;;;11.61;100.00
12664;BME280;6396;58.490;15.528;2022-10-16T06:40:33;99841.31;;;12.08;100.00
12664;BME280;6396;58.490;15.528;2022-10-16T06:43:00;99793.13;;;11.81;100.00
12664;BME280;6396;58.490;15.528;2022-10-16T06:45:28;99874.13;;;12.43;100.00
12664;BME280;6396;58.490;15.528;2022-10-16T06:47:55;99882.06;;;12.43;100.00
12664;BME280;6396;58.490;15.528;2022-10-16T06:50:22;99899.31;;;12.51;100.00
12664;BME280;6396;58.490;15.528;2022-10-16T06:52:49;99836.41;;;12.19;100.00
12664;BME280;6396;58.490;15.528;2022-10-16T06:55:16;99901.13;;;12.51;100.00
12664;BME280;6396;58.490;15.528;2022-10-16T06:57:43;99893.97;;;12.53;100.00
12664;BME280;6396;58.490;15.528;2022-10-16T07:00:10;99878.50;;;12.44;100.00
12664;BME280;6396;58.490;15.528;2022-10-16T07:02:38;99893.44;;;12.65;100.00
12664;BME280;6396;58.490;15.528;2022-10-16T07:05:06;99853.25;;;12.37;100.00
12664;BME280;6396;58.490;15.528;2022-10-16T07:07:33;99839.06;;;12.19;100.00
12664;BME280;6396;58.490;15.528;2022-10-16T07:09:59;99892.00;;;12.58;100.00
12664;BME280;6396;58.490;15.528;2022-10-16T07:12:26;99865.84;;;12.50;100.00
12664;BME280;6396;58.490;15.528;2022-10-16T07:14:53;99918.75;;;12.70;100.00
12664;BME280;6396;58.490;15.528;2022-10-16T07:17:21;99782.03;;;12.12;100.00
12664;BME280;6396;58.490;15.528;2022-10-16T07:19:50;99909.25;;;12.85;100.00
12664;BME280;6396;58.490;15.528;2022-10-16T07:22:18;99754.81;;;11.90;100.00
12664;BME280;6396;58.490;15.528;2022-10-16T07:24:45;99908.16;;;12.89;100.00
12664;BME280;6396;58.490;15.528;2022-10-16T07:27:12;99921.75;;;13.00;100.00
12664;BME280;6396;58.490;15.528;2022-10-16T07:29:39;99944.56;;;13.04;100.00
12664;BME280;6396;58.490;15.528;2022-10-16T07:32:05;99708.78;;;11.94;100.00
12664;BME280;6396;58.490;15.528;2022-10-16T07:34:32;99924.25;;;13.04;100.00
12664;BME280;6396;58.490;15.528;2022-10-16T07:37:00;99890.19;;;12.95;100.00
12664;BME280;6396;58.490;15.528;2022-10-16T07:39:27;99912.03;;;13.37;100.00
12664;BME280;6396;58.490;15.528;2022-10-16T07:41:53;99899.00;;;13.14;100.00
12664;BME280;6396;58.490;15.528;2022-10-16T07:44:20;99785.06;;;12.77;100.00
12664;BME280;6396;58.490;15.528;2022-10-16T07:46:47;99775.72;;;12.70;100.00
12664;BME280;6396;58.490;15.528;2022-10-16T07:49:14;99904.50;;;13.28;100.00
12664;BME280;6396;58.490;15.528;2022-10-16T07:51:41;99883.09;;;13.14;100.00
12664;BME280;6396;58.490;15.528;2022-10-16T07:54:09;99934.09;;;13.38;100.00
12664;BME280;6396;58.490;15.528;2022-10-16T07:56:36;99809.94;;;12.75;100.00
12664;BME280;6396;58.490;15.528;2022-10-16T07:59:03;99869.06;;;13.12;100.00
12664;BME280;6396;58.490;15.528;2022-10-16T08:01:30;99781.75;;;12.55;100.00
12664;BME280;6396;58.490;15.528;2022-10-16T08:03:57;99891.81;;;13.35;100.00
12664;BME280;6396;58.490;15.528;2022-10-16T08:06:23;99898.75;;;13.37;100.00
12664;BME280;6396;58.490;15.528;2022-10-16T08:08:50;99712.50;;;12.27;100.00
12664;BME280;6396;58.490;15.528;2022-10-16T08:11:20;99519.09;;;11.23;100.00
12664;BME280;6396;58.490;15.528;2022-10-16T08:13:49;99886.91;;;13.09;100.00
12664;BME280;6396;58.490;15.528;2022-10-16T08:16:16;99863.63;;;13.15;100.00
12664;BME280;6396;58.490;15.528;2022-10-16T08:18:43;99923.41;;;13.39;100.00
12664;BME280;6396;58.490;15.528;2022-10-16T08:21:13;99907.50;;;13.39;100.00
12664;BME280;6396;58.490;15.528;2022-10-16T08:23:40;99860.63;;;13.04;100.00
12664;BME280;6396;58.490;15.528;2022-10-16T08:26:08;99795.28;;;12.68;100.00
12664;BME280;6396;58.490;15.528;2022-10-16T08:28:36;99773.97;;;12.52;100.00
12664;BME280;6396;58.490;15.528;2022-10-16T08:31:08;99837.28;;;12.94;100.00
12664;BME280;6396;58.490;15.528;2022-10-16T08:33:35;99875.38;;;13.10;100.00
12664;BME280;6396;58.490;15.528;2022-10-16T08:36:03;99876.38;;;13.07;100.00
12664;BME280;6396;58.490;15.528;2022-10-16T08:38:30;99862.34;;;13.05;100.00
12664;BME280;6396;58.490;15.528;2022-10-16T08:41:08;99930.66;;;13.36;100.00
12664;BME280;6396;58.490;15.528;2022-10-16T08:43:59;99900.63;;;12.98;100.00
12664;BME280;6396;58.490;15.528;2022-10-16T08:46:39;99839.50;;;12.66;100.00
12664;BME280;6396;58.490;15.528;2022-10-16T08:49:11;99867.91;;;12.99;100.00
12664;BME280;6396;58.490;15.528;2022-10-16T08:51:40;99404.59;;;10.30;100.00
12664;BME280;6396;58.490;15.528;2022-10-16T08:54:21;99924.81;;;13.29;100.00
12664;BME280;6396;58.490;15.528;2022-10-16T08:56:49;99796.63;;;12.39;100.00
12664;BME280;6396;58.490;15.528;2022-10-16T08:59:18;99886.06;;;13.08;100.00
12664;BME280;6396;58.490;15.528;2022-10-16T09:01:46;99573.25;;;10.94;100.00
12664;BME280;6396;58.490;15.528;2022-10-16T09:04:32;99905.66;;;13.23;100.00
12664;BME280;6396;58.490;15.528;2022-10-16T09:07:12;99890.56;;;13.06;100.00
12664;BME280;6396;58.490;15.528;2022-10-16T09:10:03;99914.81;;;13.34;100.00
12664;BME280;6396;58.490;15.528;2022-10-16T09:12:39;99870.31;;;13.41;100.00
12664;BME280;6396;58.490;15.528;2022-10-16T09:15:19;99858.13;;;13.37;100.00
12664;BME280;6396;58.490;15.528;2022-10-16T09:17:56;99840.75;;;13.49;100.00
12664;BME280;6396;58.490;15.528;2022-10-16T09:20:32;99881.00;;;14.08;100.00
12664;BME280;6396;58.490;15.528;2022-10-16T09:23:12;99831.69;;;13.87;100.00
12664;BME280;6396;58.490;15.528;2022-10-16T09:25:44;99825.25;;;14.08;100.00
12664;BME280;6396;58.490;15.528;2022-10-16T09:28:13;99813.41;;;13.81;100.00
12664;BME280;6396;58.490;15.528;2022-10-16T09:30:42;99869.91;;;14.34;100.00
12664;BME280;6396;58.490;15.528;2022-10-16T09:33:10;99859.97;;;14.37;100.00
12664;BME280;6396;58.490;15.528;2022-10-16T09:35:39;99865.03;;;14.42;100.00
12664;BME280;6396;58.490;15.528;2022-10-16T09:38:07;99858.09;;;14.39;100.00
12664;BME280;6396;58.490;15.528;2022-10-16T09:40:35;99764.25;;;13.74;100.00
12664;BME280;6396;58.490;15.528;2022-10-16T09:43:12;99652.06;;;13.06;100.00
12664;BME280;6396;58.490;15.528;2022-10-16T09:45:53;99555.34;;;12.64;100.00
12664;BME280;6396;58.490;15.528;2022-10-16T09:48:20;99613.09;;;13.08;100.00
12664;BME280;6396;58.490;15.528;2022-10-16T09:50:55;99789.91;;;14.23;100.00
12664;BME280;6396;58.490;15.528;2022-10-16T09:53:23;99629.47;;;13.32;100.00
12664;BME280;6396;58.490;15.528;2022-10-16T09:55:51;99741.97;;;13.93;100.00
12664;BME280;6396;58.490;15.528;2022-10-16T09:58:21;99782.72;;;14.25;100.00
12664;BME280;6396;58.490;15.528;2022-10-16T10:00:52;99732.38;;;13.91;100.00
12664;BME280;6396;58.490;15.528;2022-10-16T10:03:33;99842.91;;;14.41;100.00
12664;BME280;6396;58.490;15.528;2022-10-16T10:06:06;99818.97;;;14.26;100.00
12664;BME280;6396;58.490;15.528;2022-10-16T10:08:33;99743.50;;;13.82;100.00
12664;BME280;6396;58.490;15.528;2022-10-16T10:11:00;99908.78;;;14.35;100.00
12664;BME280;6396;58.490;15.528;2022-10-16T10:13:27;99865.69;;;14.30;100.00
12664;BME280;6396;58.490;15.528;2022-10-16T10:15:55;99448.16;;;11.87;100.00
12664;BME280;6396;58.490;15.528;2022-10-16T10:18:22;99410.19;;;11.71;100.00
12664;BME280;6396;58.490;15.528;2022-10-16T10:20:59;99819.47;;;14.17;100.00
12664;BME280;6396;58.490;15.528;2022-10-16T10:23:28;99531.28;;;12.51;100.00
12664;BME280;6396;58.490;15.528;2022-10-16T10:26:00;99805.75;;;13.92;100.00
12664;BME280;6396;58.490;15.528;2022-10-16T10:28:46;99246.41;;;10.99;100.00
12664;BME280;6396;58.490;15.528;2022-10-16T10:31:21;99643.47;;;13.18;100.00
12664;BME280;6396;58.490;15.528;2022-10-16T10:33:55;99555.19;;;12.50;100.00
12664;BME280;6396;58.490;15.528;2022-10-16T10:36:32;99758.25;;;13.87;100.00
12664;BME280;6396;58.490;15.528;2022-10-16T10:39:02;99770.25;;;14.27;100.00
12664;BME280;6396;58.490;15.528;2022-10-16T10:41:56;99818.88;;;14.60;100.00
12664;BME280;6396;58.490;15.528;2022-10-16T10:44:36;99798.97;;;14.36;100.00
12664;BME280;6396;58.490;15.528;2022-10-16T10:47:13;99821.34;;;14.63;100.00
12664;BME280;6396;58.490;15.528;2022-10-16T10:49:53;99835.59;;;14.62;100.00
12664;BME280;6396;58.490;15.528;2022-10-16T10:52:41;99817.00;;;14.62;100.00
12664;BME280;6396;58.490;15.528;2022-10-16T10:55:16;99810.53;;;14.66;100.00
12664;BME280;6396;58.490;15.528;2022-10-16T10:58:00;99704.31;;;14.02;100.00
12664;BME280;6396;58.490;15.528;2022-10-16T11:00:37;99790.91;;;14.53;100.00
12664;BME280;6396;58.490;15.528;2022-10-16T11:03:20;99636.31;;;13.84;100.00
12664;BME280;6396;58.490;15.528;2022-10-16T11:05:55;99665.94;;;13.77;100.00
12664;BME280;6396;58.490;15.528;2022-10-16T11:08:28;99835.00;;;14.88;100.00
12664;BME280;6396;58.490;15.528;2022-10-16T11:11:00;99702.09;;;14.10;100.00
12664;BME280;6396;58.490;15.528;2022-10-16T11:13:33;99586.47;;;13.42;100.00
12664;BME280;6396;58.490;15.528;2022-10-16T11:16:10;99821.19;;;14.97;100.00
12664;BME280;6396;58.490;15.528;2022-10-16T11:18:46;99749.88;;;14.59;100.00
12664;BME280;6396;58.490;15.528;2022-10-16T11:21:18;99801.47;;;14.86;100.00
12664;BME280;6396;58.490;15.528;2022-10-16T11:23:50;99806.81;;;15.15;100.00
12664;BME280;6396;58.490;15.528;2022-10-16T11:26:21;99658.19;;;14.51;100.00
12664;BME280;6396;58.490;15.528;2022-10-16T11:28:50;99696.28;;;14.66;100.00
12664;BME280;6396;58.490;15.528;2022-10-16T11:31:23;99793.22;;;15.51;100.00
12664;BME280;6396;58.490;15.528;2022-10-16T11:33:59;99613.53;;;14.58;100.00
12664;BME280;6396;58.490;15.528;2022-10-16T11:36:34;99782.28;;;15.55;100.00
12664;BME280;6396;58.490;15.528;2022-10-16T11:39:11;99755.94;;;15.21;100.00
12664;BME280;6396;58.490;15.528;2022-10-16T11:41:47;99757.69;;;15.07;100.00
12664;BME280;6396;58.490;15.528;2022-10-16T11:44:35;99745.06;;;15.10;100.00
12664;BME280;6396;58.490;15.528;2022-10-16T11:47:13;99411.53;;;12.94;100.00
12664;BME280;6396;58.490;15.528;2022-10-16T11:49:44;99770.41;;;15.31;100.00
12664;BME280;6396;58.490;15.528;2022-10-16T11:52:17;99778.97;;;15.36;100.00
12664;BME280;6396;58.490;15.528;2022-10-16T11:54:50;99616.50;;;14.52;100.00
12664;BME280;6396;58.490;15.528;2022-10-16T11:57:21;99772.22;;;15.31;100.00
12664;BME280;6396;58.490;15.528;2022-10-16T11:59:54;99769.06;;;15.24;100.00
12664;BME280;6396;58.490;15.528;2022-10-16T12:02:31;99600.19;;;14.13;100.00
12664;BME280;6396;58.490;15.528;2022-10-16T12:05:12;99744.78;;;15.01;100.00
12664;BME280;6396;58.490;15.528;2022-10-16T12:07:48;99736.56;;;14.90;100.00
12664;BME280;6396;58.490;15.528;2022-10-16T12:10:22;99648.06;;;14.58;100.00
12664;BME280;6396;58.490;15.528;2022-10-16T12:12:49;99711.84;;;15.17;100.00
12664;BME280;6396;58.490;15.528;2022-10-16T12:15:23;99642.09;;;14.98;100.00
12664;BME280;6396;58.490;15.528;2022-10-16T12:17:51;99600.09;;;14.75;100.00
12664;BME280;6396;58.490;15.528;2022-10-16T12:20:32;99584.91;;;14.77;100.00
12664;BME280;6396;58.490;15.528;2022-10-16T12:23:03;99638.53;;;15.13;100.00
12664;BME280;6396;58.490;15.528;2022-10-16T12:25:33;99732.91;;;15.66;100.00
12664;BME280;6396;58.490;15.528;2022-10-16T12:28:02;99742.56;;;15.52;100.00
12664;BME280;6396;58.490;15.528;2022-10-16T12:30:31;99712.16;;;15.13;100.00
12664;BME280;6396;58.490;15.528;2022-10-16T12:33:01;99695.63;;;14.92;100.00
12664;BME280;6396;58.490;15.528;2022-10-16T12:35:33;99734.28;;;15.27;100.00
12664;BME280;6396;58.490;15.528;2022-10-16T12:38:15;99735.44;;;15.23;100.00
12664;BME280;6396;58.490;15.528;2022-10-16T12:40:44;99758.41;;;15.24;100.00
12664;BME280;6396;58.490;15.528;2022-10-16T12:43:25;99703.66;;;15.06;100.00
12664;BME280;6396;58.490;15.528;2022-10-16T12:46:00;99695.81;;;14.89;100.00
12664;BME280;6396;58.490;15.528;2022-10-16T12:48:27;99617.22;;;14.40;100.00
12664;BME280;6396;58.490;15.528;2022-10-16T12:50:56;99645.59;;;14.55;100.00
12664;BME280;6396;58.490;15.528;2022-10-16T12:53:24;99522.66;;;13.92;100.00
12664;BME280;6396;58.490;15.528;2022-10-16T12:56:02;99689.31;;;14.79;100.00
12664;BME280;6396;58.490;15.528;2022-10-16T12:58:42;99717.66;;;14.94;100.00
12664;BME280;6396;58.490;15.528;2022-10-16T13:01:22;99734.41;;;14.81;100.00
12664;BME280;6396;58.490;15.528;2022-10-16T13:04:22;99618.25;;;13.91;100.00
12664;BME280;6396;58.490;15.528;2022-10-16T13:07:02;99734.44;;;14.34;100.00